Terminal Aerodrome Forecast
Issued by NWS

Home | Current Version | Previous Version | Text Only | Print | Product List | Glossary On
Versions: 1 2 3 4 5 6 7 8 9 10 11 12 13 14 15
580
FTUS44 KLZK 222138 AAA
TAFBPK
TAF AMD
KBPK 222138Z 2222/2318 17006KT P6SM VCSH BKN050
     FM230000 VRB03KT P6SM SKC
      TEMPO 2310/2314 5SM BR
     FM231400 14006KT P6SM SCT040 SCT250=

USA.gov is the U.S. government's official web portal to all federal, state and local government web resources and services.